Time;durP1;ratioP1;P1;durP2;ratioP2;P2;SDS_P1;SDS_P2;PMS_P1;PMS_P2;Temp;Humidity;BMP_temperature;BMP_pressure;BME280_temperature;BME280_humidity;BME280_pressure;Samples;Min_cycle;Max_cycle;Signal;HPM_P1;HPM_P2
2023/05/09 00:00:50;;;;;;;;;;;14.00;60.30;;;;;;5068752;28;19919;-69
2023/05/09 00:03:16;;;;;;;;;;;13.90;60.50;;;;;;5063136;28;19923;-69
2023/05/09 00:05:42;;;;;;;;;;;13.90;60.40;;;;;;5078742;28;20585;-68
2023/05/09 00:08:08;;;;;;;;;;;13.80;60.40;;;;;;5060670;28;19913;-68
2023/05/09 00:10:33;;;;;;;;;;;13.80;60.60;;;;;;5080121;28;19916;-67
2023/05/09 00:12:59;;;;;;;;;;;13.80;60.60;;;;;;5080439;28;19919;-70
2023/05/09 00:15:25;;;;;;;;;;;13.80;60.60;;;;;;5079790;28;19920;-69
2023/05/09 00:17:51;;;;;;;;;;;13.80;60.70;;;;;;5079144;28;20300;-70
2023/05/09 00:20:17;;;;;;;;;;;13.80;60.90;;;;;;5056152;28;19912;-69
2023/05/09 00:22:43;;;;;;;;;;;13.80;60.90;;;;;;5082171;28;19919;-69
2023/05/09 00:25:09;;;;;;;;;;;13.70;60.90;;;;;;5086669;28;19912;-68
2023/05/09 00:27:35;;;;;;;;;;;13.70;61.20;;;;;;5089452;28;19920;-69
2023/05/09 00:30:00;;;;;;;;;;;13.70;61.10;;;;;;5084423;28;19919;-68
2023/05/09 00:32:27;;;;;;;;;;;13.70;61.20;;;;;;5088816;28;20015;-69
2023/05/09 00:34:53;;;;;;;;;;;13.70;61.30;;;;;;5078943;28;19977;-70
2023/05/09 00:37:19;;;;;;;;;;;13.60;61.30;;;;;;5070875;28;19920;-69
2023/05/09 00:39:46;;;;;;;;;;;13.60;61.30;;;;;;5068117;28;19920;-68
2023/05/09 00:42:15;;;;;;;;;;;13.60;61.40;;;;;;5087148;28;20788;-68
2023/05/09 00:44:40;;;;;;;;;;;13.60;61.40;;;;;;5082564;28;20010;-69
2023/05/09 00:47:06;;;;;;;;;;;13.60;61.60;;;;;;5084937;28;20003;-69
2023/05/09 00:49:32;;;;;;;;;;;13.50;61.70;;;;;;5088274;28;19934;-69
2023/05/09 00:51:58;;;;;;;;;;;13.50;61.80;;;;;;5066379;28;20351;-68
2023/05/09 00:54:24;;;;;;;;;;;13.40;61.80;;;;;;5087274;28;19912;-69
2023/05/09 00:56:49;;;;;;;;;;;13.40;62.10;;;;;;5086178;28;20019;-68
2023/05/09 00:59:15;;;;;;;;;;;13.40;62.20;;;;;;5068548;28;19912;-67
2023/05/09 01:01:41;;;;;;;;;;;13.40;62.30;;;;;;5083167;28;19927;-68
2023/05/09 01:04:06;;;;;;;;;;;13.40;62.40;;;;;;5091978;28;19955;-68
2023/05/09 01:06:51;;;;;;;;;;;13.40;62.40;;;;;;5066430;28;19912;-68
2023/05/09 01:09:20;;;;;;;;;;;13.40;62.40;;;;;;5089135;28;19919;-68
2023/05/09 01:12:03;;;;;;;;;;;13.40;62.60;;;;;;5057902;28;20004;-68
2023/05/09 01:14:37;;;;;;;;;;;13.40;62.50;;;;;;5080224;28;20012;-68
2023/05/09 01:17:17;;;;;;;;;;;13.40;62.60;;;;;;5084004;28;19916;-68
2023/05/09 01:19:49;;;;;;;;;;;13.40;62.50;;;;;;5068731;28;20539;-68
2023/05/09 01:22:15;;;;;;;;;;;13.30;62.60;;;;;;5084612;28;20348;-67
2023/05/09 01:24:59;;;;;;;;;;;13.30;62.80;;;;;;5088796;28;19916;-67
2023/05/09 01:27:36;;;;;;;;;;;13.30;62.90;;;;;;5081407;28;19927;-67
2023/05/09 01:30:02;;;;;;;;;;;13.20;62.80;;;;;;5082669;28;19916;-67
2023/05/09 01:32:29;;;;;;;;;;;13.20;63.20;;;;;;5086158;28;20323;-67
2023/05/09 01:34:58;;;;;;;;;;;13.20;63.20;;;;;;5065771;28;19938;-69
2023/05/09 01:37:31;;;;;;;;;;;13.10;63.40;;;;;;5086997;28;20398;-67
2023/05/09 01:39:59;;;;;;;;;;;13.10;63.60;;;;;;5080772;28;19958;-68
2023/05/09 01:42:26;;;;;;;;;;;13.00;63.50;;;;;;5081610;28;19923;-69
2023/05/09 01:44:53;;;;;;;;;;;13.00;63.90;;;;;;5077530;28;20429;-67
2023/05/09 01:47:19;;;;;;;;;;;13.00;64.00;;;;;;5065814;28;20088;-68
2023/05/09 01:49:46;;;;;;;;;;;12.90;64.20;;;;;;5066308;28;19920;-69
2023/05/09 01:52:14;;;;;;;;;;;12.90;64.40;;;;;;5086496;28;19919;-68
2023/05/09 01:54:40;;;;;;;;;;;12.90;64.80;;;;;;5088217;28;20374;-68
2023/05/09 01:57:06;;;;;;;;;;;12.90;64.80;;;;;;5068707;28;19916;-68
2023/05/09 01:59:33;;;;;;;;;;;12.80;64.80;;;;;;5065822;28;19912;-67
2023/05/09 02:01:59;;;;;;;;;;;12.90;64.90;;;;;;5070753;28;19916;-69
2023/05/09 02:04:25;;;;;;;;;;;12.80;64.90;;;;;;5084938;28;19920;-68
2023/05/09 02:06:52;;;;;;;;;;;12.70;65.10;;;;;;5085604;28;20054;-68
2023/05/09 02:09:18;;;;;;;;;;;12.70;65.30;;;;;;5083117;28;19924;-68
2023/05/09 02:11:45;;;;;;;;;;;12.80;65.50;;;;;;5067792;28;19916;-68
2023/05/09 02:14:11;;;;;;;;;;;12.70;65.50;;;;;;5083749;28;20570;-68
2023/05/09 02:16:38;;;;;;;;;;;12.80;65.70;;;;;;5086724;28;19916;-68
2023/05/09 02:19:04;;;;;;;;;;;12.70;65.70;;;;;;5081060;28;20074;-68
2023/05/09 02:21:29;;;;;;;;;;;12.70;65.80;;;;;;5085529;28;20116;-71
2023/05/09 02:23:55;;;;;;;;;;;12.70;66.00;;;;;;5083615;28;20290;-68
2023/05/09 02:26:21;;;;;;;;;;;12.70;66.20;;;;;;5087305;28;20019;-68
2023/05/09 02:28:47;;;;;;;;;;;12.70;66.00;;;;;;5063938;28;19997;-69
2023/05/09 02:31:13;;;;;;;;;;;12.60;66.30;;;;;;5090036;28;20363;-67
2023/05/09 02:33:40;;;;;;;;;;;12.60;66.50;;;;;;5059572;28;20283;-67
2023/05/09 02:36:07;;;;;;;;;;;12.60;66.50;;;;;;5087961;28;19919;-68
2023/05/09 02:38:33;;;;;;;;;;;12.60;66.80;;;;;;5081830;28;19934;-68
2023/05/09 02:40:59;;;;;;;;;;;12.60;66.90;;;;;;5069964;28;19985;-67
2023/05/09 02:43:43;;;;;;;;;;;12.60;67.00;;;;;;5081796;28;20403;-69
2023/05/09 02:46:08;;;;;;;;;;;12.50;67.10;;;;;;5083447;28;20402;-68
2023/05/09 02:48:34;;;;;;;;;;;12.50;67.20;;;;;;5066337;28;19955;-69
2023/05/09 02:51:00;;;;;;;;;;;12.50;67.50;;;;;;5067771;28;19912;-68
2023/05/09 02:53:26;;;;;;;;;;;12.40;67.70;;;;;;5077872;28;20368;-68
2023/05/09 02:55:54;;;;;;;;;;;12.40;68.10;;;;;;5061081;28;19971;-68
2023/05/09 02:58:19;;;;;;;;;;;12.40;68.00;;;;;;5079243;28;19954;-70
2023/05/09 03:00:45;;;;;;;;;;;12.40;68.10;;;;;;5082560;28;19963;-68
2023/05/09 03:03:11;;;;;;;;;;;12.30;68.60;;;;;;5082400;28;19960;-68
2023/05/09 03:05:37;;;;;;;;;;;12.20;68.80;;;;;;5084037;28;19923;-68
2023/05/09 03:08:02;;;;;;;;;;;12.20;68.80;;;;;;5082240;28;19913;-68
2023/05/09 03:10:28;;;;;;;;;;;12.20;69.20;;;;;;5082199;28;20430;-68
2023/05/09 03:12:53;;;;;;;;;;;12.30;69.00;;;;;;5083993;28;19912;-69
2023/05/09 03:15:20;;;;;;;;;;;12.20;69.20;;;;;;5078923;28;20454;-68
2023/05/09 03:17:45;;;;;;;;;;;12.20;69.40;;;;;;5063409;28;19971;-68
2023/05/09 03:20:11;;;;;;;;;;;12.20;69.50;;;;;;5081259;28;19919;-68
2023/05/09 03:22:37;;;;;;;;;;;12.10;69.60;;;;;;5081432;28;19916;-69
2023/05/09 03:25:02;;;;;;;;;;;12.20;69.70;;;;;;5065555;28;19956;-68
2023/05/09 03:30:50;;;;;;;;;;;12.10;70.30;;;;;;5080734;28;19923;-68
2023/05/09 03:33:16;;;;;;;;;;;12.10;70.30;;;;;;5080831;28;19908;-69
2023/05/09 03:35:41;;;;;;;;;;;12.00;70.50;;;;;;5080607;28;19920;-68
2023/05/09 03:38:07;;;;;;;;;;;12.00;70.60;;;;;;5081279;28;19912;-68
2023/05/09 03:40:32;;;;;;;;;;;12.00;71.00;;;;;;5079737;28;19912;-69
2023/05/09 03:42:58;;;;;;;;;;;12.00;71.10;;;;;;5080173;28;19980;-68
2023/05/09 03:45:24;;;;;;;;;;;11.90;71.10;;;;;;5078442;28;19912;-67
2023/05/09 03:47:49;;;;;;;;;;;12.00;71.60;;;;;;5082359;28;20410;-67
2023/05/09 03:50:15;;;;;;;;;;;11.90;71.60;;;;;;5084808;28;19923;-68
2023/05/09 03:52:40;;;;;;;;;;;11.90;72.00;;;;;;5079997;28;20003;-68
2023/05/09 03:55:06;;;;;;;;;;;11.90;71.90;;;;;;5085661;28;19912;-69
2023/05/09 03:57:33;;;;;;;;;;;11.90;72.30;;;;;;5088454;28;20010;-67
2023/05/09 03:59:59;;;;;;;;;;;11.80;72.80;;;;;;5059314;28;19969;-67
2023/05/09 04:02:25;;;;;;;;;;;11.80;72.80;;;;;;5085827;28;20375;-68
2023/05/09 04:04:51;;;;;;;;;;;11.80;73.30;;;;;;5060490;28;19920;-69
2023/05/09 04:07:17;;;;;;;;;;;11.80;73.70;;;;;;5079543;28;19963;-68
2023/05/09 04:09:43;;;;;;;;;;;11.80;73.90;;;;;;5082600;28;19912;-68
2023/05/09 04:12:09;;;;;;;;;;;11.80;74.00;;;;;;5080798;28;19916;-69
2023/05/09 04:14:34;;;;;;;;;;;11.80;74.90;;;;;;5078550;28;19950;-68
2023/05/09 04:17:00;;;;;;;;;;;11.80;74.70;;;;;;5082184;28;20276;-68
2023/05/09 04:19:26;;;;;;;;;;;11.80;75.50;;;;;;5079126;28;19922;-68
2023/05/09 04:21:51;;;;;;;;;;;11.70;75.30;;;;;;5065654;28;19916;-68
2023/05/09 04:24:17;;;;;;;;;;;11.70;75.60;;;;;;5075662;28;19919;-68
2023/05/09 04:26:42;;;;;;;;;;;11.70;75.80;;;;;;5087292;28;19916;-68
2023/05/09 04:29:08;;;;;;;;;;;11.70;76.50;;;;;;5062962;28;19977;-68
2023/05/09 04:31:34;;;;;;;;;;;11.60;76.80;;;;;;5081232;28;19920;-68
2023/05/09 04:34:00;;;;;;;;;;;11.70;77.00;;;;;;5063625;28;19912;-68
2023/05/09 04:36:26;;;;;;;;;;;11.70;77.40;;;;;;5080246;28;19923;-67
2023/05/09 04:38:52;;;;;;;;;;;11.70;77.20;;;;;;5082671;28;20003;-70
2023/05/09 04:41:17;;;;;;;;;;;11.70;78.00;;;;;;5081334;28;20011;-68
2023/05/09 04:43:43;;;;;;;;;;;11.70;77.80;;;;;;5065340;28;19960;-68
2023/05/09 04:46:09;;;;;;;;;;;11.70;78.80;;;;;;5061977;28;19938;-68
2023/05/09 04:48:34;;;;;;;;;;;11.70;79.10;;;;;;5075402;28;19928;-67
2023/05/09 04:51:01;;;;;;;;;;;11.60;79.80;;;;;;5081360;28;20333;-67
2023/05/09 04:53:27;;;;;;;;;;;11.60;80.40;;;;;;5077630;28;19956;-67
2023/05/09 04:55:55;;;;;;;;;;;11.70;80.70;;;;;;5082081;28;19927;-68
2023/05/09 04:58:20;;;;;;;;;;;11.80;80.70;;;;;;5057736;28;20435;-68
2023/05/09 05:00:46;;;;;;;;;;;11.80;81.30;;;;;;5074849;28;19920;-69
2023/05/09 05:03:12;;;;;;;;;;;11.80;82.30;;;;;;5076972;28;19916;-68
2023/05/09 05:05:39;;;;;;;;;;;11.90;82.90;;;;;;5057746;28;20402;-69
2023/05/09 05:08:04;;;;;;;;;;;11.80;82.70;;;;;;5077375;28;20315;-69
2023/05/09 05:10:30;;;;;;;;;;;11.80;83.00;;;;;;5083025;28;19923;-68
2023/05/09 05:12:56;;;;;;;;;;;11.80;84.10;;;;;;5071391;28;20409;-68
2023/05/09 05:15:21;;;;;;;;;;;11.70;84.40;;;;;;5078943;28;19920;-68
2023/05/09 05:17:47;;;;;;;;;;;11.80;85.10;;;;;;5077116;28;19927;-69
2023/05/09 05:20:12;;;;;;;;;;;11.80;85.50;;;;;;5077155;28;19933;-69
2023/05/09 05:22:38;;;;;;;;;;;11.90;85.90;;;;;;5076247;28;19923;-68
2023/05/09 05:25:04;;;;;;;;;;;11.90;86.80;;;;;;5079489;28;19982;-69
2023/05/09 05:27:30;;;;;;;;;;;12.10;86.20;;;;;;5083593;28;19938;-69
2023/05/09 05:29:55;;;;;;;;;;;12.00;86.30;;;;;;5068577;28;19912;-69
2023/05/09 05:32:21;;;;;;;;;;;12.20;91.90;;;;;;5077474;28;19919;-69
2023/05/09 05:34:46;;;;;;;;;;;12.90;91.70;;;;;;5082050;28;20394;-70
2023/05/09 05:37:12;;;;;;;;;;;13.60;90.40;;;;;;5078943;28;20063;-69
2023/05/09 05:39:38;;;;;;;;;;;13.40;83.20;;;;;;5062663;28;20352;-69
2023/05/09 05:42:03;;;;;;;;;;;13.00;83.50;;;;;;5081650;28;19991;-71
2023/05/09 05:44:29;;;;;;;;;;;12.80;84.20;;;;;;5075615;28;21638;-67
2023/05/09 05:46:54;;;;;;;;;;;12.60;85.50;;;;;;5063964;28;19923;-69
2023/05/09 05:49:20;;;;;;;;;;;12.50;85.90;;;;;;5082637;28;19924;-69
2023/05/09 05:51:46;;;;;;;;;;;12.30;87.40;;;;;;5080419;28;19916;-68
2023/05/09 05:54:11;;;;;;;;;;;12.30;88.60;;;;;;5082770;28;19959;-70
2023/05/09 05:56:37;;;;;;;;;;;12.30;89.40;;;;;;5085299;28;20455;-70
2023/05/09 05:59:02;;;;;;;;;;;12.30;89.80;;;;;;5062816;28;20004;-70
2023/05/09 06:01:28;;;;;;;;;;;12.30;90.00;;;;;;5082415;28;19919;-70
2023/05/09 06:03:54;;;;;;;;;;;12.30;90.50;;;;;;5088010;28;19944;-71
2023/05/09 06:06:20;;;;;;;;;;;12.40;90.60;;;;;;5080435;28;20656;-69
2023/05/09 06:08:48;;;;;;;;;;;12.40;90.50;;;;;;5056677;28;20358;-69
2023/05/09 06:11:17;;;;;;;;;;;12.40;90.80;;;;;;5061688;28;19963;-68
2023/05/09 06:13:43;;;;;;;;;;;12.50;90.60;;;;;;5081902;28;19912;-69
2023/05/09 06:16:09;;;;;;;;;;;12.60;90.60;;;;;;5080885;28;19916;-68
2023/05/09 06:18:36;;;;;;;;;;;12.60;90.80;;;;;;5061550;28;20477;-69
2023/05/09 06:21:02;;;;;;;;;;;12.60;90.80;;;;;;5063036;28;19915;-68
2023/05/09 06:23:28;;;;;;;;;;;12.60;90.90;;;;;;5053673;28;19936;-69
2023/05/09 06:25:54;;;;;;;;;;;12.60;91.30;;;;;;5075042;28;19916;-68
2023/05/09 06:28:19;;;;;;;;;;;12.60;91.70;;;;;;5070605;28;19912;-69
2023/05/09 06:30:46;;;;;;;;;;;12.60;91.50;;;;;;5040316;28;19927;-69
2023/05/09 06:33:11;;;;;;;;;;;12.70;91.80;;;;;;5052749;28;20359;-71
2023/05/09 06:35:37;;;;;;;;;;;12.70;92.30;;;;;;5042257;28;19920;-70
2023/05/09 06:38:03;;;;;;;;;;;12.70;92.00;;;;;;5066117;28;19977;-69
2023/05/09 06:40:28;;;;;;;;;;;12.80;92.20;;;;;;5083743;28;19908;-69
2023/05/09 06:42:54;;;;;;;;;;;12.80;92.40;;;;;;5080119;28;19912;-68
2023/05/09 06:45:20;;;;;;;;;;;12.80;92.30;;;;;;5084314;28;20006;-69
2023/05/09 06:47:45;;;;;;;;;;;12.90;92.50;;;;;;5038302;28;19916;-71
2023/05/09 06:50:11;;;;;;;;;;;12.90;92.60;;;;;;5079081;28;20395;-69
2023/05/09 06:52:36;;;;;;;;;;;13.00;92.70;;;;;;5087343;28;19916;-69
2023/05/09 06:55:02;;;;;;;;;;;13.00;92.90;;;;;;5085627;28;19915;-69
2023/05/09 06:57:28;;;;;;;;;;;13.10;92.90;;;;;;5057412;28;20568;-69
2023/05/09 06:59:54;;;;;;;;;;;13.10;92.30;;;;;;5079601;28;19922;-70
2023/05/09 07:02:19;;;;;;;;;;;13.20;92.70;;;;;;5076271;28;20442;-69
2023/05/09 07:04:45;;;;;;;;;;;13.20;92.50;;;;;;5059305;28;19917;-68
2023/05/09 07:07:10;;;;;;;;;;;13.30;92.70;;;;;;5076811;28;19923;-69
2023/05/09 07:09:36;;;;;;;;;;;13.40;92.20;;;;;;5077894;28;19981;-68
2023/05/09 07:12:02;;;;;;;;;;;13.40;92.00;;;;;;5082626;28;19926;-67
2023/05/09 07:14:27;;;;;;;;;;;13.40;91.90;;;;;;5057969;28;19916;-67
2023/05/09 07:16:55;;;;;;;;;;;13.50;91.90;;;;;;5071204;28;20234;-69
2023/05/09 07:19:21;;;;;;;;;;;13.60;91.90;;;;;;5066761;28;20138;-69
2023/05/09 07:21:46;;;;;;;;;;;13.60;91.60;;;;;;5086534;28;20360;-67
2023/05/09 07:24:12;;;;;;;;;;;13.60;91.70;;;;;;5054242;28;19935;-67
2023/05/09 07:26:37;;;;;;;;;;;13.70;91.80;;;;;;5086696;28;19920;-68
2023/05/09 07:29:03;;;;;;;;;;;13.80;91.70;;;;;;5086330;28;19923;-68
2023/05/09 07:31:29;;;;;;;;;;;13.90;91.80;;;;;;5068344;28;20395;-67
2023/05/09 07:33:54;;;;;;;;;;;14.00;91.60;;;;;;5051703;28;19916;-67
2023/05/09 07:36:20;;;;;;;;;;;14.00;91.50;;;;;;5086825;28;20471;-67
2023/05/09 07:38:47;;;;;;;;;;;14.10;91.50;;;;;;5083124;28;19965;-69
2023/05/09 07:41:13;;;;;;;;;;;14.20;91.70;;;;;;5085946;28;19994;-68
2023/05/09 07:43:39;;;;;;;;;;;14.30;91.80;;;;;;5088650;28;20384;-69
2023/05/09 07:46:04;;;;;;;;;;;14.40;91.30;;;;;;5078205;28;19926;-69
2023/05/09 07:48:30;;;;;;;;;;;14.50;91.60;;;;;;5060501;28;19920;-66
2023/05/09 07:50:57;;;;;;;;;;;14.50;91.40;;;;;;5083244;28;20414;-69
2023/05/09 07:53:22;;;;;;;;;;;14.70;91.50;;;;;;5074484;28;20163;-69
2023/05/09 07:55:49;;;;;;;;;;;14.80;91.10;;;;;;5087933;28;19977;-69
2023/05/09 07:58:15;;;;;;;;;;;14.80;90.90;;;;;;5069294;28;19912;-69
2023/05/09 08:00:41;;;;;;;;;;;14.90;90.80;;;;;;5068501;28;20518;-68
2023/05/09 08:03:07;;;;;;;;;;;14.90;90.70;;;;;;5082583;28;19942;-68
2023/05/09 08:05:32;;;;;;;;;;;14.90;90.70;;;;;;5067154;28;19916;-68
2023/05/09 08:07:58;;;;;;;;;;;15.00;90.70;;;;;;5083628;28;19920;-66
2023/05/09 08:10:25;;;;;;;;;;;15.10;90.70;;;;;;5069728;28;20571;-67
2023/05/09 08:12:51;;;;;;;;;;;15.10;90.20;;;;;;5087818;28;19920;-68
2023/05/09 08:15:16;;;;;;;;;;;15.10;90.30;;;;;;5066378;28;20352;-67
2023/05/09 08:17:42;;;;;;;;;;;15.20;90.40;;;;;;5083870;28;19927;-68
2023/05/09 08:20:08;;;;;;;;;;;15.30;90.60;;;;;;5087624;28;19912;-68
2023/05/09 08:22:33;;;;;;;;;;;15.40;90.30;;;;;;5084701;28;20450;-69
2023/05/09 08:24:59;;;;;;;;;;;15.40;90.40;;;;;;5084911;28;19912;-69
2023/05/09 08:27:25;;;;;;;;;;;15.50;90.10;;;;;;5069803;28;19918;-68
2023/05/09 08:29:50;;;;;;;;;;;15.50;90.00;;;;;;5086653;28;19908;-68
2023/05/09 08:32:18;;;;;;;;;;;15.60;89.80;;;;;;5066217;28;19912;-69
2023/05/09 08:34:44;;;;;;;;;;;15.70;90.00;;;;;;5085813;28;20003;-69
2023/05/09 08:37:10;;;;;;;;;;;15.80;89.00;;;;;;5085969;28;20054;-68
2023/05/09 08:39:35;;;;;;;;;;;15.90;88.80;;;;;;5070103;28;19995;-70
2023/05/09 08:42:01;;;;;;;;;;;15.90;87.50;;;;;;5066261;28;20260;-67
2023/05/09 08:44:28;;;;;;;;;;;16.00;87.40;;;;;;5068198;28;19916;-68
2023/05/09 08:46:55;;;;;;;;;;;16.00;87.50;;;;;;5069452;28;19912;-69
2023/05/09 08:49:21;;;;;;;;;;;16.10;86.30;;;;;;5069552;28;19912;-69
2023/05/09 08:51:46;;;;;;;;;;;16.20;86.70;;;;;;5092887;28;19991;-69
2023/05/09 08:54:13;;;;;;;;;;;16.20;86.90;;;;;;5084913;28;19916;-68
2023/05/09 08:56:39;;;;;;;;;;;16.30;87.10;;;;;;5067366;28;19923;-69
2023/05/09 08:59:05;;;;;;;;;;;16.40;87.00;;;;;;5087628;28;19916;-70
2023/05/09 09:01:32;;;;;;;;;;;16.50;86.00;;;;;;5069656;28;20326;-69
2023/05/09 09:03:59;;;;;;;;;;;16.70;84.70;;;;;;5071254;28;20359;-68
2023/05/09 09:06:25;;;;;;;;;;;16.80;85.20;;;;;;5073841;28;19911;-69
2023/05/09 09:08:53;;;;;;;;;;;16.80;84.70;;;;;;5088086;28;20203;-68
2023/05/09 09:11:21;;;;;;;;;;;16.80;83.90;;;;;;5067354;28;19920;-69
2023/05/09 09:13:48;;;;;;;;;;;16.90;83.80;;;;;;5070812;28;20064;-69
2023/05/09 09:16:18;;;;;;;;;;;17.00;84.20;;;;;;5087179;28;19963;-70
2023/05/09 09:18:45;;;;;;;;;;;17.00;85.00;;;;;;5090556;28;20379;-68
2023/05/09 09:21:11;;;;;;;;;;;17.20;82.60;;;;;;5090518;28;19908;-69
2023/05/09 09:23:38;;;;;;;;;;;17.20;83.20;;;;;;5085771;28;19912;-69
2023/05/09 09:26:04;;;;;;;;;;;17.30;80.90;;;;;;5091074;28;19994;-69
2023/05/09 09:28:30;;;;;;;;;;;17.30;80.50;;;;;;5083472;28;20005;-69
2023/05/09 09:30:56;;;;;;;;;;;17.40;81.20;;;;;;5088858;28;19967;-69
2023/05/09 09:33:23;;;;;;;;;;;17.40;81.20;;;;;;5088963;28;20295;-69
2023/05/09 09:35:49;;;;;;;;;;;17.60;78.70;;;;;;5090012;28;20268;-68
2023/05/09 09:38:16;;;;;;;;;;;17.60;76.40;;;;;;5089131;28;19912;-68
2023/05/09 09:40:47;;;;;;;;;;;17.60;76.60;;;;;;5069143;28;19919;-68
2023/05/09 09:43:13;;;;;;;;;;;17.70;75.00;;;;;;5081138;28;20035;-68
2023/05/09 09:45:40;;;;;;;;;;;17.70;74.40;;;;;;5086527;28;20007;-68
2023/05/09 09:48:06;;;;;;;;;;;17.80;74.10;;;;;;5088362;28;19970;-68
2023/05/09 09:50:31;;;;;;;;;;;17.90;73.70;;;;;;5083490;28;20407;-68
2023/05/09 09:52:59;;;;;;;;;;;17.90;73.70;;;;;;5090232;28;19947;-67
2023/05/09 09:55:25;;;;;;;;;;;17.90;74.70;;;;;;5089807;28;20311;-68
2023/05/09 09:57:51;;;;;;;;;;;18.00;74.00;;;;;;5085980;28;19916;-68
2023/05/09 10:00:26;;;;;;;;;;;18.10;74.90;;;;;;5068620;28;19916;-68
2023/05/09 10:02:53;;;;;;;;;;;18.20;72.80;;;;;;5087564;28;20011;-68
2023/05/09 10:05:23;;;;;;;;;;;18.30;71.90;;;;;;5089659;28;20014;-68
2023/05/09 10:07:58;;;;;;;;;;;18.30;70.80;;;;;;5088194;28;19912;-68
2023/05/09 10:10:33;;;;;;;;;;;18.30;69.80;;;;;;5067295;28;19912;-68
2023/05/09 10:13:00;;;;;;;;;;;18.30;69.70;;;;;;5087379;28;20011;-68
2023/05/09 10:15:27;;;;;;;;;;;18.40;69.50;;;;;;5070844;28;19973;-69
2023/05/09 10:17:55;;;;;;;;;;;18.40;69.60;;;;;;5068530;28;19963;-67
2023/05/09 10:20:21;;;;;;;;;;;18.60;68.50;;;;;;5064406;28;20344;-69
2023/05/09 10:22:47;;;;;;;;;;;18.50;69.30;;;;;;5087597;28;19912;-69
2023/05/09 10:25:16;;;;;;;;;;;18.60;68.30;;;;;;5088941;28;19938;-68
2023/05/09 10:27:44;;;;;;;;;;;18.70;67.50;;;;;;5086823;28;19920;-68
2023/05/09 10:30:12;;;;;;;;;;;18.70;66.90;;;;;;5088484;28;19927;-68
2023/05/09 10:32:50;;;;;;;;;;;18.80;68.40;;;;;;5087913;28;19997;-68
2023/05/09 10:35:17;;;;;;;;;;;18.90;66.70;;;;;;5086427;28;19916;-68
2023/05/09 10:37:44;;;;;;;;;;;18.80;65.80;;;;;;5085422;28;19920;-69
2023/05/09 10:40:13;;;;;;;;;;;18.80;66.10;;;;;;5089348;28;19916;-68
2023/05/09 10:42:41;;;;;;;;;;;18.90;66.50;;;;;;5083928;28;20006;-68
2023/05/09 10:45:08;;;;;;;;;;;19.00;65.10;;;;;;5086177;28;19920;-68
2023/05/09 10:47:34;;;;;;;;;;;19.00;64.80;;;;;;5088740;28;19954;-69
2023/05/09 10:50:00;;;;;;;;;;;19.10;64.10;;;;;;5072079;28;19948;-68
2023/05/09 10:52:30;;;;;;;;;;;19.20;64.10;;;;;;5068419;28;20354;-67
2023/05/09 10:55:03;;;;;;;;;;;19.40;63.70;;;;;;5087055;28;20291;-70
2023/05/09 10:57:30;;;;;;;;;;;19.40;63.90;;;;;;5087461;28;19965;-68
2023/05/09 10:59:57;;;;;;;;;;;19.50;62.80;;;;;;5069079;28;19991;-69
2023/05/09 11:02:28;;;;;;;;;;;19.70;62.80;;;;;;5087290;28;19916;-70
2023/05/09 11:05:12;;;;;;;;;;;19.80;60.70;;;;;;5086268;28;19985;-69
2023/05/09 11:07:37;;;;;;;;;;;19.90;60.90;;;;;;5086272;28;20357;-70
2023/05/09 11:10:07;;;;;;;;;;;20.10;60.70;;;;;;5068483;28;19919;-68
2023/05/09 11:12:32;;;;;;;;;;;20.60;60.30;;;;;;5061998;28;19912;-68
2023/05/09 11:15:06;;;;;;;;;;;21.30;58.60;;;;;;5087078;28;19994;-67
2023/05/09 11:17:36;;;;;;;;;;;22.20;56.50;;;;;;5085339;28;19920;-68
2023/05/09 11:20:04;;;;;;;;;;;23.10;54.10;;;;;;5061289;28;19973;-69
2023/05/09 11:22:36;;;;;;;;;;;23.90;51.20;;;;;;5087609;28;19916;-71
2023/05/09 11:25:05;;;;;;;;;;;24.70;49.20;;;;;;5082347;28;19912;-70
2023/05/09 11:27:44;;;;;;;;;;;25.30;47.80;;;;;;5065801;28;19919;-69
2023/05/09 11:30:17;;;;;;;;;;;26.20;46.00;;;;;;5085082;28;20255;-71
2023/05/09 11:32:49;;;;;;;;;;;27.10;43.90;;;;;;5081374;28;19914;-69
2023/05/09 11:35:16;;;;;;;;;;;27.50;42.30;;;;;;5081841;28;19912;-69
2023/05/09 11:37:45;;;;;;;;;;;27.70;41.70;;;;;;5067088;28;19948;-69
2023/05/09 11:40:12;;;;;;;;;;;28.70;40.80;;;;;;5086635;28;20307;-67
2023/05/09 11:42:40;;;;;;;;;;;28.70;38.90;;;;;;5082995;28;19922;-68
2023/05/09 11:45:06;;;;;;;;;;;29.00;38.60;;;;;;5083243;28;19916;-68
2023/05/09 11:47:32;;;;;;;;;;;28.80;38.20;;;;;;5082036;28;20338;-69
2023/05/09 11:49:57;;;;;;;;;;;28.20;39.50;;;;;;5087250;28;20003;-69
2023/05/09 11:52:24;;;;;;;;;;;28.00;39.60;;;;;;5090425;28;19908;-67
2023/05/09 11:54:50;;;;;;;;;;;27.90;39.40;;;;;;5087336;28;19943;-69
2023/05/09 11:57:18;;;;;;;;;;;27.90;39.50;;;;;;5084275;28;20368;-69
2023/05/09 11:59:44;;;;;;;;;;;27.30;39.90;;;;;;5080267;28;19969;-71
2023/05/09 12:02:10;;;;;;;;;;;27.50;40.50;;;;;;5066304;28;19916;-68
2023/05/09 12:04:35;;;;;;;;;;;27.30;40.80;;;;;;5067876;28;20403;-69
2023/05/09 12:07:01;;;;;;;;;;;26.80;40.80;;;;;;5088759;28;19915;-70
2023/05/09 12:09:36;;;;;;;;;;;26.70;41.20;;;;;;5068525;28;19965;-70
2023/05/09 12:12:07;;;;;;;;;;;26.80;40.10;;;;;;5066970;28;19965;-68
2023/05/09 12:14:33;;;;;;;;;;;26.50;40.20;;;;;;5085899;28;19919;-68
2023/05/09 12:17:00;;;;;;;;;;;26.60;41.20;;;;;;5086499;28;19916;-70
2023/05/09 12:19:25;;;;;;;;;;;26.40;40.10;;;;;;5071851;28;19935;-68
2023/05/09 12:21:58;;;;;;;;;;;26.30;40.40;;;;;;5091746;28;20375;-69
2023/05/09 12:24:27;;;;;;;;;;;26.80;40.30;;;;;;5075086;28;19912;-70
2023/05/09 12:26:53;;;;;;;;;;;26.60;41.40;;;;;;5067723;28;20310;-72
2023/05/09 12:29:20;;;;;;;;;;;26.60;40.80;;;;;;5068820;28;19916;-70
2023/05/09 12:31:45;;;;;;;;;;;26.70;40.50;;;;;;5093925;28;19916;-69
2023/05/09 12:34:11;;;;;;;;;;;26.70;40.90;;;;;;5068839;28;19923;-69
2023/05/09 12:36:37;;;;;;;;;;;26.50;40.80;;;;;;5073164;28;19922;-70
2023/05/09 12:39:08;;;;;;;;;;;26.60;41.40;;;;;;5092973;28;19912;-70
2023/05/09 12:41:33;;;;;;;;;;;26.80;40.80;;;;;;5074330;28;19916;-70
2023/05/09 12:43:59;;;;;;;;;;;26.70;40.90;;;;;;5094113;28;20291;-69
2023/05/09 12:46:25;;;;;;;;;;;26.90;40.50;;;;;;5088222;28;19946;-68
2023/05/09 12:48:51;;;;;;;;;;;27.10;40.70;;;;;;5074429;28;20367;-68
2023/05/09 12:51:20;;;;;;;;;;;27.20;40.00;;;;;;5090866;28;19913;-68
2023/05/09 12:53:46;;;;;;;;;;;27.60;39.80;;;;;;5073466;28;19912;-67
2023/05/09 12:56:24;;;;;;;;;;;27.70;39.70;;;;;;5071386;28;19916;-67
2023/05/09 12:58:50;;;;;;;;;;;28.20;39.80;;;;;;5092714;28;19912;-68
2023/05/09 13:01:16;;;;;;;;;;;27.80;39.10;;;;;;5073378;28;20009;-68
2023/05/09 13:03:43;;;;;;;;;;;28.00;39.40;;;;;;5088702;28;20156;-69
2023/05/09 13:06:13;;;;;;;;;;;27.90;38.90;;;;;;5070158;28;19916;-68
2023/05/09 13:08:39;;;;;;;;;;;27.90;38.60;;;;;;5090089;28;19924;-68
2023/05/09 13:11:04;;;;;;;;;;;28.30;38.60;;;;;;5087170;28;19999;-69
2023/05/09 13:13:30;;;;;;;;;;;28.60;39.00;;;;;;5093186;28;19916;-71
2023/05/09 13:15:56;;;;;;;;;;;28.80;37.80;;;;;;5091504;28;20406;-67
2023/05/09 13:18:23;;;;;;;;;;;29.30;38.00;;;;;;5086220;28;19939;-68
2023/05/09 13:20:49;;;;;;;;;;;29.70;37.40;;;;;;5092349;28;19916;-69
2023/05/09 13:23:15;;;;;;;;;;;30.10;37.00;;;;;;5074252;28;20054;-68
2023/05/09 13:25:43;;;;;;;;;;;29.30;37.50;;;;;;5072751;28;19942;-68
2023/05/09 13:28:08;;;;;;;;;;;29.90;36.90;;;;;;5093265;28;19939;-68
2023/05/09 13:30:34;;;;;;;;;;;30.30;36.40;;;;;;5088400;28;19912;-67
2023/05/09 13:33:00;;;;;;;;;;;30.30;36.10;;;;;;5086146;28;19919;-69
2023/05/09 13:35:26;;;;;;;;;;;30.50;36.70;;;;;;5086560;28;19970;-69
2023/05/09 13:37:51;;;;;;;;;;;31.40;35.50;;;;;;5071760;28;20446;-69
2023/05/09 13:40:17;;;;;;;;;;;31.40;35.20;;;;;;5088126;28;20094;-69
2023/05/09 13:42:43;;;;;;;;;;;30.80;34.80;;;;;;5069709;28;20398;-70
2023/05/09 13:45:09;;;;;;;;;;;30.90;35.40;;;;;;5051642;28;19927;-68
2023/05/09 13:47:35;;;;;;;;;;;30.50;35.50;;;;;;5087049;28;19999;-69
2023/05/09 13:50:01;;;;;;;;;;;30.30;36.40;;;;;;5073263;28;19953;-68
2023/05/09 13:52:27;;;;;;;;;;;29.70;36.20;;;;;;5088500;28;19912;-69
2023/05/09 13:54:52;;;;;;;;;;;29.50;35.90;;;;;;5093842;28;19924;-69
2023/05/09 13:57:18;;;;;;;;;;;29.40;36.20;;;;;;5089346;28;19916;-70
2023/05/09 13:59:44;;;;;;;;;;;28.80;36.20;;;;;;5064812;28;19931;-69
2023/05/09 14:02:12;;;;;;;;;;;28.50;36.90;;;;;;5087228;28;19951;-68
2023/05/09 14:04:38;;;;;;;;;;;28.30;37.60;;;;;;5088455;28;19923;-68
2023/05/09 14:07:03;;;;;;;;;;;28.70;37.00;;;;;;5046773;28;20283;-69
2023/05/09 14:09:29;;;;;;;;;;;28.40;37.50;;;;;;5083315;28;19912;-72
2023/05/09 14:11:55;;;;;;;;;;;28.00;37.70;;;;;;5071129;28;20356;-69
2023/05/09 14:14:22;;;;;;;;;;;27.30;38.60;;;;;;5090763;28;19915;-69
2023/05/09 14:16:47;;;;;;;;;;;26.80;38.80;;;;;;5073499;28;19923;-68